Time;durP1;ratioP1;P1;durP2;ratioP2;P2;SDS_P1;SDS_P2;PMS_P1;PMS_P2;Temp;Humidity;BMP_temperature;BMP_pressure;BME280_temperature;BME280_humidity;BME280_pressure;Samples;Min_cycle;Max_cycle;Signal;HPM_P1;HPM_P2
2022/05/05 00:00:54;;;;;;;20.30;18.48;;;10.70;99.90;;;;;;5035732;28;20397;-78
2022/05/05 00:03:20;;;;;;;24.52;20.45;;;10.80;99.90;;;;;;5036457;28;20032;-78
2022/05/05 00:05:47;;;;;;;21.88;19.60;;;10.80;99.90;;;;;;5036157;28;20041;-79
2022/05/05 00:08:13;;;;;;;25.92;21.00;;;10.80;99.90;;;;;;5036376;28;20034;-78
2022/05/05 00:16:09;;;;;;;23.40;20.88;;;11.00;99.90;;;;;;5033668;28;20038;-78
2022/05/05 00:18:35;;;;;;;28.08;21.58;;;11.00;99.90;;;;;;5036672;28;20037;-78
2022/05/05 00:21:02;;;;;;;23.83;21.58;;;11.00;99.90;;;;;;5035371;28;20045;-78
2022/05/05 00:23:28;;;;;;;25.35;22.83;;;11.20;99.90;;;;;;5036777;28;20455;-79
2022/05/05 00:25:54;;;;;;;25.77;23.08;;;11.30;99.90;;;;;;5039843;28;20034;-79
2022/05/05 00:28:21;;;;;;;24.65;21.55;;;11.40;99.90;;;;;;5036925;28;20049;-79
2022/05/05 00:30:47;;;;;;;26.10;23.52;;;11.40;99.90;;;;;;5017751;28;20045;-79
2022/05/05 00:33:13;;;;;;;24.25;21.85;;;11.40;99.90;;;;;;5035982;28;20033;-78
2022/05/05 00:35:39;;;;;;;22.80;20.40;;;11.50;99.90;;;;;;5017595;28;20133;-78
2022/05/05 00:38:05;;;;;;;23.08;20.75;;;11.60;99.90;;;;;;5035775;28;20040;-79
2022/05/05 00:40:32;;;;;;;22.92;20.67;;;11.60;99.90;;;;;;5036896;28;20462;-78
2022/05/05 00:42:59;;;;;;;25.83;22.30;;;11.70;99.90;;;;;;5035258;28;20050;-78
2022/05/05 00:45:25;;;;;;;24.38;20.35;;;11.70;99.90;;;;;;5029828;28;20033;-78
2022/05/05 00:47:51;;;;;;;23.13;20.73;;;11.70;99.90;;;;;;5035633;28;20029;-78
2022/05/05 00:50:22;;;;;;;23.33;21.17;;;11.60;99.90;;;;;;5033054;28;20042;-78
2022/05/05 00:52:49;;;;;;;25.95;19.75;;;11.60;99.90;;;;;;5035237;28;20040;-79
2022/05/05 00:55:15;;;;;;;23.08;20.60;;;11.60;99.90;;;;;;5034706;28;20142;-79
2022/05/05 00:57:42;;;;;;;21.95;18.15;;;11.60;99.90;;;;;;5035187;28;20033;-78
2022/05/05 01:00:09;;;;;;;21.73;19.63;;;11.60;99.90;;;;;;5049127;28;20037;-78
2022/05/05 01:02:36;;;;;;;21.27;19.25;;;11.60;99.90;;;;;;5039518;28;20042;-78
2022/05/05 01:05:02;;;;;;;22.35;20.42;;;11.70;99.90;;;;;;5034908;28;20212;-78
2022/05/05 01:07:28;;;;;;;21.25;18.75;;;11.70;99.90;;;;;;5035421;28;20378;-78
2022/05/05 01:09:56;;;;;;;20.13;18.13;;;11.70;99.90;;;;;;5034048;28;20462;-78
2022/05/05 01:12:23;;;;;;;20.15;18.00;;;11.70;99.90;;;;;;5023050;28;20041;-78
2022/05/05 01:14:50;;;;;;;18.83;17.02;;;11.70;99.90;;;;;;5034020;28;20045;-79
2022/05/05 01:17:16;;;;;;;20.08;18.20;;;11.80;99.90;;;;;;5038688;28;20041;-78
2022/05/05 01:19:42;;;;;;;21.23;19.13;;;11.80;99.90;;;;;;5036276;28;20528;-78
2022/05/05 01:22:08;;;;;;;19.42;17.15;;;11.80;99.90;;;;;;5032490;28;20033;-78
2022/05/05 01:30:05;;;;;;;20.23;18.42;;;11.70;99.90;;;;;;5043946;28;20028;-78
2022/05/05 01:32:32;;;;;;;23.58;19.02;;;11.70;99.90;;;;;;5034169;28;20037;-78
2022/05/05 01:34:59;;;;;;;21.17;18.95;;;11.60;99.90;;;;;;5041986;28;20041;-77
2022/05/05 01:37:26;;;;;;;20.63;18.58;;;11.60;99.90;;;;;;5054700;28;20033;-78
2022/05/05 01:39:52;;;;;;;18.65;16.88;;;11.60;99.90;;;;;;5043866;28;20041;-78
2022/05/05 01:42:19;;;;;;;26.73;20.83;;;11.60;99.90;;;;;;5032365;28;20052;-78
2022/05/05 01:44:45;;;;;;;27.45;22.83;;;11.60;99.90;;;;;;5034110;28;20037;-78
2022/05/05 01:47:11;;;;;;;25.38;22.88;;;11.60;99.90;;;;;;5032998;28;20481;-78
2022/05/05 01:49:37;;;;;;;26.77;23.85;;;11.50;99.90;;;;;;5033990;28;20470;-78
2022/05/05 01:52:10;;;;;;;27.38;24.77;;;11.60;99.90;;;;;;5033743;28;20026;-78
2022/05/05 01:54:38;;;;;;;25.83;23.23;;;11.60;99.90;;;;;;5033534;28;20442;-78
2022/05/05 01:57:05;;;;;;;26.05;23.60;;;11.60;99.90;;;;;;5034029;28;20459;-78
2022/05/05 01:59:33;;;;;;;24.15;21.90;;;11.60;99.90;;;;;;5033393;28;20049;-77
2022/05/05 02:01:59;;;;;;;24.52;22.27;;;11.60;99.90;;;;;;5031087;28;20041;-78
2022/05/05 02:04:26;;;;;;;26.92;24.25;;;11.60;99.90;;;;;;5033796;28;20033;-78
2022/05/05 02:06:52;;;;;;;29.77;25.55;;;11.60;99.90;;;;;;5042112;28;20032;-78
2022/05/05 02:09:18;;;;;;;25.58;22.88;;;11.60;99.90;;;;;;5076558;28;20028;-78
2022/05/05 02:11:44;;;;;;;29.02;26.15;;;11.50;99.90;;;;;;5035179;28;20037;-78
2022/05/05 02:14:10;;;;;;;26.73;24.13;;;11.50;99.90;;;;;;5033178;28;20032;-77
2022/05/05 02:16:36;;;;;;;26.83;24.23;;;11.40;99.90;;;;;;5033893;28;20041;-78
2022/05/05 02:19:03;;;;;;;24.45;22.20;;;11.40;99.90;;;;;;5033917;28;20367;-78
2022/05/05 02:21:29;;;;;;;25.38;22.17;;;11.40;99.90;;;;;;5033241;28;20052;-78
2022/05/05 02:23:55;;;;;;;24.17;21.88;;;11.40;99.90;;;;;;5033052;28;20037;-78
2022/05/05 02:26:21;;;;;;;22.67;20.38;;;11.40;99.90;;;;;;5033712;28;20029;-77
2022/05/05 02:28:49;;;;;;;21.90;19.85;;;11.40;99.90;;;;;;5032570;28;20034;-79
2022/05/05 02:31:16;;;;;;;23.67;21.48;;;11.30;99.90;;;;;;5052599;28;20051;-78
2022/05/05 02:33:42;;;;;;;24.30;22.13;;;11.30;99.90;;;;;;5035180;28;20477;-77
2022/05/05 02:38:55;;;;;;;24.67;22.35;;;11.30;99.90;;;;;;5032887;28;20040;-77
2022/05/05 02:41:21;;;;;;;29.77;23.55;;;11.30;99.90;;;;;;5032542;28;20025;-78
2022/05/05 02:43:47;;;;;;;28.48;24.98;;;11.30;99.90;;;;;;5033463;28;20044;-79
2022/05/05 02:46:13;;;;;;;29.48;23.73;;;11.30;99.90;;;;;;5032275;28;20339;-78
2022/05/05 02:48:40;;;;;;;31.25;26.77;;;11.30;99.90;;;;;;5033177;28;20121;-80
2022/05/05 02:51:06;;;;;;;29.77;26.88;;;11.40;99.90;;;;;;5032257;28;20041;-77
2022/05/05 02:56:17;;;;;;;27.98;24.40;;;11.50;99.90;;;;;;5033824;28;20435;-79
2022/05/05 02:58:43;;;;;;;29.52;26.42;;;11.50;99.90;;;;;;5042404;28;20029;-79
2022/05/05 03:01:09;;;;;;;33.45;30.15;;;11.50;99.90;;;;;;5047741;28;20504;-79
2022/05/05 03:03:36;;;;;;;36.35;32.35;;;11.50;99.90;;;;;;5033544;28;20037;-79
2022/05/05 03:06:02;;;;;;;31.23;27.05;;;11.50;99.90;;;;;;5030536;28;20045;-79
2022/05/05 03:08:28;;;;;;;30.75;27.50;;;11.50;99.90;;;;;;5032896;28;20033;-80
2022/05/05 03:10:54;;;;;;;27.98;24.98;;;11.50;99.90;;;;;;5032577;28;20442;-79
2022/05/05 03:13:21;;;;;;;26.65;24.05;;;11.50;99.90;;;;;;5033317;28;20033;-79
2022/05/05 03:15:47;;;;;;;27.65;24.98;;;11.50;99.90;;;;;;5042382;28;20048;-79
2022/05/05 03:18:13;;;;;;;29.30;26.20;;;11.50;99.90;;;;;;5032267;28;20037;-79
2022/05/05 03:20:39;;;;;;;29.05;26.33;;;11.50;99.90;;;;;;5032776;28;20052;-79
2022/05/05 03:23:05;;;;;;;31.00;27.70;;;11.50;99.90;;;;;;5032130;28;20048;-79
2022/05/05 03:25:31;;;;;;;28.52;25.77;;;11.40;99.90;;;;;;5032732;28;20396;-79
2022/05/05 03:27:58;;;;;;;27.88;25.02;;;11.30;99.90;;;;;;5036991;28;20026;-79
2022/05/05 03:30:24;;;;;;;26.77;24.02;;;11.30;99.90;;;;;;5037213;28;20044;-79
2022/05/05 03:32:50;;;;;;;26.02;23.42;;;11.20;99.90;;;;;;5036418;28;20037;-80
2022/05/05 03:35:16;;;;;;;22.65;20.50;;;11.20;99.90;;;;;;5037441;28;20485;-79
2022/05/05 03:37:42;;;;;;;24.17;22.08;;;11.20;99.90;;;;;;5038275;28;20030;-79
2022/05/05 03:40:09;;;;;;;24.50;22.25;;;11.20;99.90;;;;;;5035981;28;20025;-79
2022/05/05 03:42:35;;;;;;;25.50;21.90;;;11.20;99.90;;;;;;5037068;28;20044;-79
2022/05/05 03:45:01;;;;;;;24.48;22.30;;;11.30;99.90;;;;;;5035577;28;20041;-79
2022/05/05 03:47:28;;;;;;;24.83;22.42;;;11.20;99.90;;;;;;5036748;28;20048;-79
2022/05/05 03:49:54;;;;;;;24.58;22.13;;;11.20;99.90;;;;;;5038851;28;20040;-78
2022/05/05 03:52:20;;;;;;;24.38;22.08;;;11.20;99.90;;;;;;5057610;28;20037;-78
2022/05/05 03:54:46;;;;;;;24.48;22.20;;;11.20;99.90;;;;;;5040649;28;20030;-80
2022/05/05 03:57:12;;;;;;;29.67;26.20;;;11.20;99.90;;;;;;5036889;28;20037;-79
2022/05/05 03:59:38;;;;;;;30.63;27.42;;;11.30;99.90;;;;;;5036693;28;20050;-80
2022/05/05 04:02:05;;;;;;;33.08;29.95;;;11.30;99.90;;;;;;5035416;28;20077;-82
2022/05/05 04:04:31;;;;;;;35.10;31.45;;;11.30;99.90;;;;;;5036610;28;20026;-81
2022/05/05 04:06:57;;;;;;;29.10;26.48;;;11.40;99.90;;;;;;5018830;28;20470;-81
2022/05/05 04:09:23;;;;;;;28.58;25.88;;;11.40;99.90;;;;;;5037094;28;20037;-79
2022/05/05 04:11:49;;;;;;;30.35;27.27;;;11.40;99.90;;;;;;5053544;28;20041;-80
2022/05/05 04:14:16;;;;;;;27.30;24.52;;;11.40;99.90;;;;;;5047271;28;20033;-80
2022/05/05 04:16:43;;;;;;;26.40;24.00;;;11.40;99.90;;;;;;5041699;28;20052;-80
2022/05/05 04:19:10;;;;;;;31.65;27.85;;;11.40;99.90;;;;;;5036207;28;20045;-80
2022/05/05 04:21:36;;;;;;;29.95;27.23;;;11.40;99.90;;;;;;5039257;28;20454;-80
2022/05/05 04:24:02;;;;;;;35.80;32.10;;;11.40;99.90;;;;;;5050176;28;20036;-79
2022/05/05 04:26:29;;;;;;;36.03;32.60;;;11.50;99.90;;;;;;5052239;28;20482;-79
2022/05/05 04:28:57;;;;;;;37.58;33.90;;;11.50;99.90;;;;;;5025411;28;20060;-79
2022/05/05 04:31:25;;;;;;;35.45;31.65;;;11.50;99.90;;;;;;5056646;28;20036;-79
2022/05/05 04:33:51;;;;;;;36.67;33.17;;;11.50;99.90;;;;;;5049018;28;20041;-79
2022/05/05 04:36:18;;;;;;;35.90;32.25;;;11.50;99.90;;;;;;5044526;28;20422;-79
2022/05/05 04:38:44;;;;;;;35.00;31.38;;;11.50;99.90;;;;;;5036087;28;20041;-80
2022/05/05 04:41:10;;;;;;;33.47;29.98;;;11.40;99.90;;;;;;5017297;28;20466;-80
2022/05/05 04:43:36;;;;;;;31.67;28.63;;;11.40;99.90;;;;;;5028385;28;20048;-80
2022/05/05 04:46:02;;;;;;;29.13;26.15;;;11.40;99.90;;;;;;5059004;28;20481;-80
2022/05/05 04:48:29;;;;;;;26.88;24.38;;;11.40;99.90;;;;;;5055689;28;20033;-80
2022/05/05 04:50:55;;;;;;;28.80;26.17;;;11.40;99.90;;;;;;5032256;28;20038;-81
2022/05/05 04:53:21;;;;;;;25.30;22.60;;;11.40;99.90;;;;;;5051207;28;20033;-80
2022/05/05 04:55:47;;;;;;;25.50;22.85;;;11.40;99.90;;;;;;5059109;28;20381;-80
2022/05/05 04:58:13;;;;;;;21.65;19.45;;;11.40;99.90;;;;;;5075209;28;20039;-81
2022/05/05 05:00:40;;;;;;;24.05;21.75;;;11.40;99.90;;;;;;5054553;28;20044;-80
2022/05/05 05:03:32;;;;;;;27.08;22.15;;;11.40;99.90;;;;;;5018157;28;20049;-81
2022/05/05 05:05:52;;;;;;;30.30;23.13;;;11.40;99.90;;;;;;5060241;28;20218;-80
2022/05/05 05:08:18;;;;;;;25.13;22.42;;;11.40;99.90;;;;;;5043240;28;20036;-81
2022/05/05 05:10:44;;;;;;;22.55;20.15;;;11.30;99.90;;;;;;5078434;28;20016;-79
2022/05/05 05:13:10;;;;;;;25.80;20.05;;;11.40;99.90;;;;;;5078354;28;20027;-80
2022/05/05 05:15:37;;;;;;;21.65;19.33;;;11.40;99.90;;;;;;5044432;28;20062;-79
2022/05/05 05:18:03;;;;;;;22.33;20.27;;;11.30;99.90;;;;;;5017002;28;20046;-79
2022/05/05 05:20:29;;;;;;;24.10;21.60;;;11.30;99.90;;;;;;5017883;28;20372;-79
2022/05/05 05:22:55;;;;;;;21.05;19.08;;;11.40;99.90;;;;;;5018206;28;20046;-79
2022/05/05 05:25:21;;;;;;;21.95;19.85;;;11.40;99.90;;;;;;5005926;28;20034;-79
2022/05/05 05:27:48;;;;;;;21.00;18.77;;;11.40;99.90;;;;;;4995523;28;20399;-79
2022/05/05 05:30:14;;;;;;;20.40;18.33;;;11.40;99.90;;;;;;4995308;28;20037;-79
2022/05/05 05:32:40;;;;;;;20.73;18.63;;;11.40;99.90;;;;;;4996590;28;20030;-80
2022/05/05 05:35:06;;;;;;;29.00;18.25;;;11.40;99.90;;;;;;5011018;28;20034;-80
2022/05/05 05:37:32;;;;;;;20.17;17.23;;;11.50;99.90;;;;;;5000470;28;20063;-80
2022/05/05 05:39:59;;;;;;;15.57;14.07;;;11.40;99.90;;;;;;5013461;28;20034;-80
2022/05/05 05:42:25;;;;;;;18.15;14.98;;;11.40;99.90;;;;;;4994900;28;20049;-79
2022/05/05 05:44:51;;;;;;;16.85;15.15;;;11.40;99.90;;;;;;4994573;28;20034;-78
2022/05/05 05:47:17;;;;;;;16.27;14.77;;;11.40;99.90;;;;;;4994598;28;20037;-78
2022/05/05 05:49:43;;;;;;;15.60;13.95;;;11.40;99.90;;;;;;4995042;28;20409;-78
2022/05/05 05:52:09;;;;;;;19.30;14.88;;;11.40;99.90;;;;;;5005371;28;20029;-78
2022/05/05 05:54:36;;;;;;;19.17;14.75;;;11.40;99.90;;;;;;4995055;28;20030;-78
2022/05/05 05:57:02;;;;;;;18.25;14.57;;;11.40;99.90;;;;;;4996593;28;20033;-78
2022/05/05 05:59:28;;;;;;;16.90;13.05;;;11.40;99.90;;;;;;5004303;28;20034;-78
2022/05/05 06:04:39;;;;;;;15.90;14.25;;;11.40;99.90;;;;;;4994060;28;20042;-78
2022/05/05 06:07:06;;;;;;;15.95;14.52;;;11.40;99.90;;;;;;4993934;28;20041;-80
2022/05/05 06:09:32;;;;;;;16.15;14.65;;;11.50;99.90;;;;;;4994288;28;20033;-79
2022/05/05 06:11:58;;;;;;;14.73;13.23;;;11.50;99.90;;;;;;5008772;28;20030;-79
2022/05/05 06:14:24;;;;;;;18.33;14.10;;;11.50;99.90;;;;;;4992732;28;20045;-79
2022/05/05 06:16:51;;;;;;;15.25;13.45;;;11.50;99.90;;;;;;5021543;28;20050;-79
2022/05/05 06:19:17;;;;;;;15.52;13.93;;;11.50;99.90;;;;;;5016377;28;20495;-78
2022/05/05 06:21:43;;;;;;;15.02;13.43;;;11.40;99.90;;;;;;4999605;28;20041;-83
2022/05/05 06:24:10;;;;;;;15.40;13.48;;;11.40;99.90;;;;;;5013423;28;20046;-82
2022/05/05 06:26:36;;;;;;;16.83;14.07;;;11.40;99.90;;;;;;5009178;28;20030;-82
2022/05/05 06:29:02;;;;;;;18.33;14.75;;;11.40;99.90;;;;;;5002019;28;20049;-82
2022/05/05 06:31:29;;;;;;;17.48;14.68;;;11.50;99.90;;;;;;4996277;28;20030;-82
2022/05/05 06:33:55;;;;;;;16.10;13.57;;;11.50;99.90;;;;;;4995820;28;20483;-83
2022/05/05 06:36:21;;;;;;;16.25;14.52;;;11.50;99.90;;;;;;4995403;28;20034;-83
2022/05/05 06:38:51;;;;;;;20.23;14.02;;;11.50;99.90;;;;;;5002912;28;20034;-83
2022/05/05 06:41:17;;;;;;;19.70;14.85;;;11.50;99.90;;;;;;5012886;28;20030;-83
2022/05/05 06:43:45;;;;;;;16.65;14.85;;;11.60;99.90;;;;;;5000353;28;20045;-83
2022/05/05 06:46:11;;;;;;;17.42;15.40;;;11.60;99.90;;;;;;4980120;28;20042;-82
2022/05/05 06:48:37;;;;;;;15.30;13.85;;;11.60;99.90;;;;;;4994473;28;20026;-82
2022/05/05 06:51:04;;;;;;;18.75;14.63;;;11.60;99.90;;;;;;4994485;28;20041;-82
2022/05/05 06:53:31;;;;;;;15.20;13.70;;;11.70;99.90;;;;;;5008126;28;20040;-82
2022/05/05 06:55:58;;;;;;;16.40;14.25;;;11.70;99.90;;;;;;5010764;28;20061;-81
2022/05/05 06:58:25;;;;;;;16.17;14.05;;;11.70;99.90;;;;;;4994286;28;20035;-80
2022/05/05 07:03:37;;;;;;;18.33;16.48;;;11.60;99.90;;;;;;4995858;28;20394;-79
2022/05/05 07:06:05;;;;;;;17.92;14.93;;;11.60;99.90;;;;;;5007246;28;20030;-82
2022/05/05 07:11:19;;;;;;;18.20;14.40;;;11.80;99.90;;;;;;4995973;28;20038;-81
2022/05/05 07:13:45;;;;;;;18.38;14.32;;;11.70;99.90;;;;;;5004019;28;20498;-80
2022/05/05 07:16:11;;;;;;;17.17;15.43;;;11.80;99.90;;;;;;5026682;28;20046;-81
2022/05/05 07:18:38;;;;;;;16.77;15.23;;;11.80;99.90;;;;;;5021428;28;20040;-81
2022/05/05 07:21:04;;;;;;;18.17;16.25;;;11.90;99.90;;;;;;5022538;28;20038;-80
2022/05/05 07:23:31;;;;;;;17.58;15.55;;;11.90;99.90;;;;;;5034747;28;20052;-81
2022/05/05 07:25:57;;;;;;;18.20;16.35;;;11.80;99.90;;;;;;5017494;28;20037;-83
2022/05/05 07:28:23;;;;;;;18.23;15.07;;;11.80;99.90;;;;;;5025447;28;20042;-80
2022/05/05 07:30:51;;;;;;;17.05;15.40;;;11.70;99.90;;;;;;5031606;28;20037;-81
2022/05/05 07:33:19;;;;;;;23.40;15.57;;;11.70;99.90;;;;;;5016226;28;20387;-82
2022/05/05 07:35:47;;;;;;;23.80;17.00;;;11.70;99.90;;;;;;5033125;28;20030;-80
2022/05/05 07:38:14;;;;;;;22.30;16.67;;;11.60;99.90;;;;;;5031571;28;20030;-81
2022/05/05 07:40:40;;;;;;;17.73;16.02;;;11.50;99.90;;;;;;5024374;28;20036;-79
2022/05/05 07:43:07;;;;;;;19.63;17.63;;;11.60;99.90;;;;;;5015931;28;20042;-80
2022/05/05 07:45:33;;;;;;;22.23;18.00;;;11.50;99.90;;;;;;5027061;28;20048;-80
2022/05/05 07:48:01;;;;;;;21.42;19.42;;;11.50;99.90;;;;;;5020117;28;20034;-80
2022/05/05 07:50:28;;;;;;;21.65;19.48;;;11.50;99.90;;;;;;5029793;28;20042;-80
2022/05/05 07:52:54;;;;;;;24.17;21.73;;;11.50;99.90;;;;;;5013495;28;20033;-87
2022/05/05 07:55:20;;;;;;;24.90;20.27;;;11.50;99.90;;;;;;5014009;28;20414;-83
2022/05/05 07:57:47;;;;;;;23.58;21.05;;;11.50;99.90;;;;;;5031018;28;20033;-85
2022/05/05 08:00:14;;;;;;;25.20;22.15;;;11.50;99.90;;;;;;5026630;28;20258;-86
2022/05/05 08:02:40;;;;;;;25.73;20.83;;;11.50;99.90;;;;;;5014453;28;20049;-81
2022/05/05 08:05:09;;;;;;;27.23;24.35;;;11.60;99.90;;;;;;5013799;28;20022;-86
2022/05/05 08:07:35;;;;;;;25.48;23.15;;;11.60;99.90;;;;;;5014516;28;20034;-83
2022/05/05 08:10:02;;;;;;;26.45;23.85;;;11.70;99.90;;;;;;5018930;28;20038;-83
2022/05/05 08:12:29;;;;;;;28.85;26.13;;;11.70;99.90;;;;;;5034866;28;20030;-83
2022/05/05 08:14:56;;;;;;;29.42;24.35;;;11.80;99.90;;;;;;5013380;28;20042;-85
2022/05/05 08:17:22;;;;;;;24.38;21.95;;;12.00;99.90;;;;;;4997391;28;20026;-87
2022/05/05 08:19:48;;;;;;;24.98;22.65;;;11.90;99.90;;;;;;5012437;28;20395;-85
2022/05/05 08:22:14;;;;;;;25.20;22.95;;;12.00;99.90;;;;;;4996934;28;20034;-85
2022/05/05 08:30:11;;;;;;;29.00;24.23;;;12.10;99.90;;;;;;5005585;28;20034;-88
2022/05/05 08:32:37;;;;;;;24.70;22.35;;;12.20;99.90;;;;;;5011942;28;20030;-87
2022/05/05 08:35:04;;;;;;;24.45;21.90;;;12.20;99.90;;;;;;4996613;28;20045;-87
2022/05/05 08:37:30;;;;;;;25.80;23.40;;;12.30;99.90;;;;;;5009513;28;20386;-87
2022/05/05 08:39:56;;;;;;;24.15;21.50;;;12.40;99.90;;;;;;5010653;28;20098;-85
2022/05/05 08:42:24;;;;;;;23.10;20.33;;;12.40;99.90;;;;;;5007008;28;20030;-83
2022/05/05 08:44:51;;;;;;;24.77;22.38;;;12.40;99.90;;;;;;4997209;28;20030;-85
2022/05/05 08:47:19;;;;;;;22.70;20.35;;;12.50;99.90;;;;;;4982414;28;20047;-81
2022/05/05 08:49:46;;;;;;;21.48;18.88;;;12.50;99.90;;;;;;4996333;28;20045;-82
2022/05/05 08:52:17;;;;;;;22.45;19.25;;;12.50;99.90;;;;;;4995589;28;20030;-85
2022/05/05 08:54:45;;;;;;;20.35;18.27;;;12.40;99.90;;;;;;5009552;28;20057;-86
2022/05/05 08:57:11;;;;;;;22.63;19.60;;;12.30;99.90;;;;;;5010205;28;20038;-81
2022/05/05 08:59:39;;;;;;;22.13;19.70;;;12.20;99.90;;;;;;4997007;28;20038;-81
2022/05/05 09:02:05;;;;;;;20.25;18.15;;;12.30;99.90;;;;;;5002464;28;20029;-81
2022/05/05 09:04:32;;;;;;;28.75;19.83;;;12.20;99.90;;;;;;4999195;28;20038;-81
2022/05/05 09:06:58;;;;;;;25.02;18.38;;;12.30;99.90;;;;;;5010441;28;20046;-81
2022/05/05 09:09:25;;;;;;;24.70;18.40;;;12.30;99.90;;;;;;4994707;28;20046;-81
2022/05/05 09:12:25;;;;;;;27.67;19.15;;;12.30;99.90;;;;;;4995580;28;20041;-81
2022/05/05 09:14:55;;;;;;;22.75;18.63;;;12.30;99.90;;;;;;4994974;28;20049;-80
2022/05/05 09:17:28;;;;;;;20.23;18.00;;;12.30;99.90;;;;;;5035393;28;20052;-80
2022/05/05 09:19:56;;;;;;;19.15;17.15;;;12.30;99.90;;;;;;5036030;28;20041;-79
2022/05/05 09:22:27;;;;;;;21.02;18.33;;;12.20;99.90;;;;;;5042874;28;20039;-80
2022/05/05 09:24:56;;;;;;;18.88;17.08;;;12.30;99.90;;;;;;5054601;28;20044;-79
2022/05/05 09:27:25;;;;;;;20.15;17.55;;;12.30;99.90;;;;;;5032355;28;20038;-79
2022/05/05 09:30:13;;;;;;;20.83;18.13;;;12.20;99.90;;;;;;5036365;28;20473;-79
2022/05/05 09:32:45;;;;;;;20.15;18.02;;;12.20;99.90;;;;;;5054526;28;20029;-80
2022/05/05 09:35:16;;;;;;;18.45;16.50;;;12.30;99.90;;;;;;5014780;28;20041;-81
2022/05/05 09:37:48;;;;;;;21.13;18.67;;;12.30;99.90;;;;;;5053258;28;20037;-82
2022/05/05 09:40:19;;;;;;;21.65;19.48;;;12.30;99.90;;;;;;5053500;28;20048;-82
2022/05/05 09:42:47;;;;;;;23.65;20.05;;;12.40;99.90;;;;;;5018941;28;20037;-81
2022/05/05 09:45:17;;;;;;;22.95;20.33;;;12.40;99.90;;;;;;5043888;28;20033;-82
2022/05/05 09:47:45;;;;;;;21.77;19.13;;;12.50;99.90;;;;;;5016613;28;20048;-79
2022/05/05 09:50:12;;;;;;;21.25;19.13;;;12.50;99.90;;;;;;5036463;28;20307;-81
2022/05/05 09:58:15;;;;;;;20.58;18.10;;;12.50;99.90;;;;;;5033591;28;20055;-83
2022/05/05 10:01:09;;;;;;;22.58;19.75;;;12.50;99.90;;;;;;5034965;28;20037;-82
2022/05/05 10:04:01;;;;;;;20.83;18.40;;;12.60;99.90;;;;;;5033235;28;20037;-83
2022/05/05 10:06:30;;;;;;;21.77;19.50;;;12.60;99.90;;;;;;5035573;28;20097;-81
2022/05/05 10:09:01;;;;;;;18.55;16.70;;;12.60;99.90;;;;;;5042776;28;20029;-82
2022/05/05 10:11:27;;;;;;;22.45;19.95;;;12.70;99.90;;;;;;5050231;28;20041;-84
2022/05/05 10:13:56;;;;;;;24.55;19.10;;;12.70;99.90;;;;;;5038638;28;20461;-83
2022/05/05 10:16:23;;;;;;;21.10;18.83;;;12.60;99.90;;;;;;5034564;28;20050;-83
2022/05/05 10:18:50;;;;;;;21.25;19.05;;;12.60;99.90;;;;;;5038924;28;20025;-83
2022/05/05 10:21:46;;;;;;;23.63;19.85;;;12.60;99.90;;;;;;5055811;28;20052;-82
2022/05/05 10:24:17;;;;;;;22.27;20.02;;;12.60;99.90;;;;;;5054139;28;20312;-81
2022/05/05 10:26:58;;;;;;;22.65;20.42;;;12.60;99.90;;;;;;5044272;28;20041;-81
2022/05/05 10:29:35;;;;;;;22.60;20.17;;;12.70;99.90;;;;;;5000752;28;20037;-85
2022/05/05 10:32:30;;;;;;;23.83;21.48;;;12.70;99.90;;;;;;5016616;28;20037;-82
2022/05/05 10:35:28;;;;;;;25.88;20.88;;;12.70;99.90;;;;;;5035346;28;20052;-83
2022/05/05 10:37:54;;;;;;;23.00;20.58;;;12.70;99.90;;;;;;5042322;28;20042;-82
2022/05/05 10:40:23;;;;;;;23.33;20.30;;;12.80;99.90;;;;;;5041625;28;20048;-83
2022/05/05 10:42:52;;;;;;;23.30;20.15;;;12.80;99.90;;;;;;5039803;28;20040;-82
2022/05/05 10:45:31;;;;;;;25.45;22.98;;;12.80;99.90;;;;;;5033866;28;20045;-82
2022/05/05 10:47:58;;;;;;;23.65;21.35;;;12.90;99.90;;;;;;5035658;28;20462;-81
2022/05/05 10:50:50;;;;;;;25.27;22.67;;;12.90;99.90;;;;;;5016958;28;20044;-80
2022/05/05 10:53:37;;;;;;;23.35;20.73;;;12.90;99.90;;;;;;4999655;28;20481;-79
2022/05/05 10:56:24;;;;;;;22.13;20.10;;;12.90;99.90;;;;;;5035471;28;20033;-81
2022/05/05 10:59:05;;;;;;;22.23;20.17;;;12.90;99.90;;;;;;5033472;28;20041;-79
2022/05/05 11:01:51;;;;;;;;;;;12.90;99.90;;;;;;5016978;28;20501;-80
2022/05/05 11:04:28;;;;;;;21.83;19.17;;;12.80;99.90;;;;;;5033604;28;20361;-79
2022/05/05 11:07:30;;;;;;;22.38;20.10;;;12.80;99.90;;;;;;5039638;28;20470;-79
2022/05/05 11:09:58;;;;;;;21.50;19.13;;;12.90;99.90;;;;;;5015174;28;20057;-80
2022/05/05 11:12:32;;;;;;;22.90;19.90;;;13.00;99.90;;;;;;5040741;28;20430;-80
2022/05/05 11:23:47;;;;;;;21.58;19.30;;;13.40;99.90;;;;;;5029405;28;20045;-82
2022/05/05 11:26:17;;;;;;;20.85;18.73;;;13.50;99.90;;;;;;5015610;28;20475;-80
2022/05/05 11:28:45;;;;;;;20.60;18.02;;;13.50;99.90;;;;;;5014411;28;20034;-81
2022/05/05 11:31:31;;;;;;;21.90;19.13;;;13.60;99.90;;;;;;5012485;28;20052;-81
2022/05/05 11:34:03;;;;;;;21.33;16.98;;;13.60;99.90;;;;;;5016158;28;20042;-79
2022/05/05 11:36:33;;;;;;;28.88;18.33;;;13.70;99.90;;;;;;5023762;28;20026;-79
2022/05/05 11:38:59;;;;;;;23.13;18.80;;;13.60;99.90;;;;;;5028538;28;20036;-80
2022/05/05 11:41:28;;;;;;;19.75;17.20;;;13.50;99.90;;;;;;5015125;28;20034;-79
2022/05/05 11:46:39;;;;;;;25.90;17.52;;;13.40;99.90;;;;;;5039186;28;20021;-79
2022/05/05 11:49:06;;;;;;;20.42;15.68;;;13.40;99.90;;;;;;5040876;28;20026;-79
2022/05/05 11:51:34;;;;;;;20.77;17.65;;;13.30;99.90;;;;;;5042181;28;20044;-79
2022/05/05 11:54:04;;;;;;;18.67;16.90;;;13.30;99.90;;;;;;5039581;28;20047;-79
2022/05/05 11:56:32;;;;;;;22.00;17.08;;;13.30;99.90;;;;;;5017078;28;20030;-79
2022/05/05 12:02:12;;;;;;;17.40;15.73;;;13.40;99.90;;;;;;5016957;28;20034;-81
2022/05/05 12:04:46;;;;;;;34.08;15.68;;;13.40;99.90;;;;;;5032793;28;20041;-80
2022/05/05 12:07:21;;;;;;;19.05;17.05;;;13.50;99.90;;;;;;5016075;28;20073;-80
2022/05/05 12:09:48;;;;;;;17.17;14.48;;;13.50;99.90;;;;;;5016985;28;20041;-79
2022/05/05 12:12:19;;;;;;;17.02;14.73;;;13.60;99.90;;;;;;5018476;28;20033;-78
2022/05/05 12:14:48;;;;;;;17.27;15.43;;;13.70;99.90;;;;;;5029363;28;20034;-79
2022/05/05 12:17:18;;;;;;;15.02;13.48;;;13.80;99.90;;;;;;5038356;28;20378;-80
2022/05/05 12:19:50;;;;;;;17.58;14.88;;;14.00;99.90;;;;;;5041086;28;20195;-80
2022/05/05 12:22:21;;;;;;;13.73;12.27;;;14.20;99.90;;;;;;5051380;28;20032;-79
2022/05/05 12:24:47;;;;;;;15.73;13.90;;;14.30;99.90;;;;;;5040103;28;20041;-79
2022/05/05 12:27:14;;;;;;;19.70;15.07;;;14.30;99.90;;;;;;5040891;28;20379;-79
2022/05/05 12:29:42;;;;;;;16.27;13.82;;;14.40;99.90;;;;;;5038661;28;20026;-80
2022/05/05 12:32:10;;;;;;;15.85;13.38;;;14.60;99.90;;;;;;5048229;28;20036;-79
2022/05/05 12:34:36;;;;;;;15.40;13.73;;;14.70;99.90;;;;;;5036218;28;20033;-79
2022/05/05 12:37:14;;;;;;;15.88;13.05;;;14.80;99.90;;;;;;5035896;28;20041;-81
2022/05/05 12:40:01;;;;;;;20.33;13.77;;;14.80;99.90;;;;;;5036842;28;20041;-79
2022/05/05 12:42:39;;;;;;;14.25;12.85;;;14.80;99.90;;;;;;5035079;28;20049;-80
2022/05/05 12:45:08;;;;;;;16.20;12.85;;;14.90;99.90;;;;;;5017433;28;20061;-80
2022/05/05 12:47:46;;;;;;;14.98;13.32;;;14.90;99.90;;;;;;5018280;28;20025;-77
2022/05/05 12:50:34;;;;;;;15.80;13.45;;;15.00;99.90;;;;;;5038498;28;20040;-80
2022/05/05 13:01:48;;;;;;;16.25;14.55;;;14.90;99.90;;;;;;5041657;28;20041;-81
2022/05/05 13:04:18;;;;;;;20.05;15.05;;;14.80;99.90;;;;;;5035245;28;20034;-80
2022/05/05 13:06:47;;;;;;;18.70;14.48;;;14.70;99.90;;;;;;5034456;28;20391;-79
2022/05/05 13:09:14;;;;;;;18.90;14.10;;;14.70;99.90;;;;;;5035313;28;20037;-80
2022/05/05 13:11:44;;;;;;;18.15;14.50;;;14.60;99.90;;;;;;5034849;28;20033;-80
2022/05/05 13:14:11;;;;;;;22.65;14.00;;;14.60;99.90;;;;;;5016681;28;20045;-79
2022/05/05 13:16:37;;;;;;;16.08;14.38;;;14.50;99.90;;;;;;5036758;28;20049;-79
2022/05/05 13:19:05;;;;;;;15.35;13.75;;;14.50;99.90;;;;;;5036603;28;20382;-79
2022/05/05 13:21:39;;;;;;;19.83;13.43;;;14.40;99.90;;;;;;5035401;28;20037;-80
2022/05/05 13:24:07;;;;;;;21.48;14.02;;;14.30;99.90;;;;;;5034538;28;20466;-79
2022/05/05 13:26:33;;;;;;;19.45;14.95;;;14.30;99.90;;;;;;5035348;28;20390;-79
2022/05/05 13:29:00;;;;;;;19.52;15.80;;;14.30;99.90;;;;;;5034923;28;20048;-79
2022/05/05 13:31:26;;;;;;;17.77;15.23;;;14.20;99.90;;;;;;5034269;28;20034;-79
2022/05/05 13:33:52;;;;;;;17.38;14.30;;;14.10;99.90;;;;;;5035967;28;20041;-79